Time;durP1;ratioP1;P1;durP2;ratioP2;P2;SDS_P1;SDS_P2;PMS_P1;PMS_P2;Temp;Humidity;BMP_temperature;BMP_pressure;BME280_temperature;BME280_humidity;BME280_pressure;Samples;Min_cycle;Max_cycle;Signal;HPM_P1;HPM_P2
2023/08/16 00:00:16;;;;;;;3.13;2.83;;;14.60;99.90;;;;;;5021653;28;20636;-85
2023/08/16 00:02:42;;;;;;;7.00;3.20;;;14.60;99.90;;;;;;5021774;28;20266;-83
2023/08/16 00:05:07;;;;;;;5.17;3.20;;;14.60;99.90;;;;;;5020989;28;20237;-82
2023/08/16 00:07:34;;;;;;;2.23;1.87;;;14.60;99.90;;;;;;5005518;28;20191;-85
2023/08/16 00:10:01;;;;;;;2.33;1.97;;;14.50;99.90;;;;;;5018644;28;20735;-84
2023/08/16 00:12:26;;;;;;;3.33;2.20;;;14.30;99.90;;;;;;5020970;28;20245;-84
2023/08/16 00:14:52;;;;;;;1.70;1.30;;;14.30;99.90;;;;;;5022415;28;21067;-84
2023/08/16 00:17:18;;;;;;;2.60;2.03;;;14.10;99.90;;;;;;5021389;28;20218;-83
2023/08/16 00:19:44;;;;;;;2.17;1.97;;;13.90;99.90;;;;;;5020569;28;20197;-84
2023/08/16 00:22:10;;;;;;;5.23;2.80;;;13.70;99.90;;;;;;5021272;28;20221;-84
2023/08/16 00:24:36;;;;;;;4.47;3.77;;;13.70;99.90;;;;;;5022499;28;20219;-84
2023/08/16 00:27:03;;;;;;;8.60;3.63;;;14.00;99.90;;;;;;5021405;28;21173;-85
2023/08/16 00:29:28;;;;;;;6.70;3.67;;;14.20;99.90;;;;;;5022069;28;21045;-84
2023/08/16 00:31:54;;;;;;;5.40;4.17;;;14.30;99.90;;;;;;5021419;28;20191;-84
2023/08/16 00:34:20;;;;;;;4.93;4.43;;;14.40;99.90;;;;;;5021877;28;21117;-84
2023/08/16 00:36:45;;;;;;;6.73;3.47;;;14.40;99.90;;;;;;5020428;28;20227;-82
2023/08/16 00:39:11;;;;;;;11.73;3.50;;;14.50;99.90;;;;;;5020682;28;20219;-85
2023/08/16 00:41:37;;;;;;;5.50;3.93;;;14.50;99.90;;;;;;5019874;28;20587;-83
2023/08/16 00:44:03;;;;;;;9.30;4.40;;;14.60;99.90;;;;;;5020901;28;20282;-83
2023/08/16 00:46:30;;;;;;;5.90;3.57;;;14.60;99.90;;;;;;5021204;28;20186;-84
2023/08/16 00:48:56;;;;;;;11.17;5.10;;;14.70;99.90;;;;;;5020400;28;20250;-84
2023/08/16 00:51:22;;;;;;;8.30;5.00;;;14.60;99.90;;;;;;5021378;28;20214;-84
2023/08/16 00:53:48;;;;;;;8.23;3.83;;;14.60;99.90;;;;;;5020835;28;20233;-84
2023/08/16 00:56:15;;;;;;;5.37;3.90;;;14.60;99.90;;;;;;5021299;28;20699;-84
2023/08/16 00:58:42;;;;;;;4.77;4.00;;;14.50;99.90;;;;;;5022172;28;20301;-84
2023/08/16 01:01:09;;;;;;;5.43;4.00;;;14.30;99.90;;;;;;5019730;28;20229;-84
2023/08/16 01:03:34;;;;;;;7.90;4.27;;;14.20;99.90;;;;;;5020408;28;20258;-83
2023/08/16 01:06:00;;;;;;;9.53;5.20;;;14.30;99.90;;;;;;5020018;28;20353;-84
2023/08/16 01:08:26;;;;;;;6.50;3.97;;;14.30;99.90;;;;;;5020000;28;20225;-84
2023/08/16 01:11:00;;;;;;;7.10;4.33;;;14.40;99.90;;;;;;5021447;28;20714;-84
2023/08/16 01:14:07;;;;;;;5.00;3.93;;;14.40;99.90;;;;;;5021189;28;20191;-84
2023/08/16 01:16:35;;;;;;;7.90;4.33;;;14.40;99.90;;;;;;5038540;28;20210;-83
2023/08/16 01:19:09;;;;;;;6.10;4.90;;;14.50;99.90;;;;;;5040036;28;20218;-83
2023/08/16 01:21:41;;;;;;;6.97;4.17;;;14.50;99.90;;;;;;5039016;28;20748;-84
2023/08/16 01:24:16;;;;;;;5.37;3.90;;;14.50;99.90;;;;;;5039598;28;20272;-85
2023/08/16 01:26:42;;;;;;;4.30;2.67;;;14.30;99.90;;;;;;5040175;28;20722;-85
2023/08/16 01:29:10;;;;;;;4.27;3.47;;;14.10;99.90;;;;;;5022157;28;20320;-84
2023/08/16 01:31:37;;;;;;;2.87;2.30;;;14.00;99.90;;;;;;5041643;28;20320;-84
2023/08/16 01:34:03;;;;;;;12.20;4.20;;;14.00;99.90;;;;;;5038713;28;20313;-84
2023/08/16 01:36:28;;;;;;;5.57;3.23;;;14.00;99.90;;;;;;5039432;28;20218;-83
2023/08/16 01:38:56;;;;;;;3.57;2.87;;;14.00;99.90;;;;;;5040608;28;20313;-84
2023/08/16 01:41:30;;;;;;;3.97;2.93;;;14.00;99.90;;;;;;5039818;28;20386;-85
2023/08/16 01:43:56;;;;;;;4.73;3.83;;;14.00;99.90;;;;;;5072300;28;20733;-84
2023/08/16 01:46:23;;;;;;;6.40;3.93;;;14.00;99.90;;;;;;5041168;28;20193;-84
2023/08/16 01:48:50;;;;;;;4.60;2.60;;;14.00;99.90;;;;;;5038756;28;20714;-84
2023/08/16 01:51:17;;;;;;;5.03;3.07;;;14.00;99.90;;;;;;5038722;28;20233;-84
2023/08/16 01:53:42;;;;;;;3.33;2.27;;;13.90;99.90;;;;;;5039496;28;20218;-83
2023/08/16 01:56:32;;;;;;;2.03;1.83;;;13.90;99.90;;;;;;5043050;28;20577;-87
2023/08/16 01:59:11;;;;;;;2.40;1.97;;;13.80;99.90;;;;;;5027607;28;20270;-86
2023/08/16 02:02:03;;;;;;;;;;;;;;;;;;;;;
2023/08/16 02:08:14;;;;;;;;;;;;;;;;;;;;;
2023/08/16 02:10:46;;;;;;;2.67;1.40;;;12.70;99.90;;;;;;5030666;28;20182;-85
2023/08/16 02:13:18;;;;;;;16.27;2.33;;;12.60;99.90;;;;;;5030740;28;20206;-86
2023/08/16 02:15:54;;;;;;;;;;;;;;;;;;;;;
2023/08/16 02:18:29;;;;;;;5.53;1.53;;;12.60;99.90;;;;;;5039738;28;20248;-86
2023/08/16 02:21:41;;;;;;;1.57;1.20;;;12.50;99.90;;;;;;5052277;28;20219;-87
2023/08/16 02:24:11;;;;;;;1.73;1.27;;;12.30;99.90;;;;;;5050367;28;20217;-86
2023/08/16 02:26:53;;;;;;;1.67;1.30;;;12.10;99.90;;;;;;5048427;28;20206;-86
2023/08/16 02:29:27;;;;;;;7.07;1.70;;;12.00;99.90;;;;;;5044750;28;20573;-87
2023/08/16 02:31:55;;;;;;;3.10;1.70;;;12.00;99.90;;;;;;5037496;28;20173;-87
2023/08/16 02:34:45;;;;;;;2.10;1.90;;;12.10;99.90;;;;;;5047730;28;20328;-87
2023/08/16 02:37:11;;;;;;;2.23;1.83;;;12.20;99.90;;;;;;5002113;28;20201;-87
2023/08/16 02:39:37;;;;;;;1.93;1.83;;;12.30;99.90;;;;;;5030202;28;20213;-87
2023/08/16 02:42:09;;;;;;;2.90;2.50;;;12.40;99.90;;;;;;5046863;28;20222;-87
2023/08/16 02:44:47;;;;;;;2.33;1.87;;;12.60;99.90;;;;;;5051352;28;20316;-87
2023/08/16 02:47:48;;;;;;;2.23;1.73;;;12.80;99.90;;;;;;5039507;28;20206;-87
2023/08/16 02:54:38;;;;;;;2.10;1.97;;;12.70;99.90;;;;;;5046478;28;20186;-89
2023/08/16 03:05:46;;;;;;;2.23;1.97;;;12.50;99.90;;;;;;5027012;28;20547;-89
2023/08/16 03:11:57;;;;;;;2.87;2.53;;;12.60;99.90;;;;;;4986907;28;20191;-89
2023/08/16 03:15:12;;;;;;;;;;;;;;;;;;;;;
2023/08/16 03:37:27;;;;;;;;;;;;;;;;;;;;;
2023/08/16 04:12:52;;;;;;;;;;;;;;;;;;;;;
2023/08/16 04:59:18;;;;;;;2.17;1.67;;;12.30;99.90;;;;;;4942691;28;20689;-89
2023/08/16 05:48:12;;;;;;;8.10;4.20;;;17.00;99.90;;;;;;5046022;28;20300;-87
2023/08/16 05:50:55;;;;;;;8.80;6.03;;;19.40;99.90;;;;;;5049623;28;20205;-86
2023/08/16 06:04:45;;;;;;;2.60;2.40;;;29.80;99.90;;;;;;5006251;28;20568;-87
2023/08/16 06:07:30;;;;;;;3.03;2.40;;;30.40;99.90;;;;;;4988913;28;20656;-88
2023/08/16 06:10:04;;;;;;;3.00;2.80;;;30.80;99.90;;;;;;4991938;28;20716;-87
2023/08/16 06:13:25;;;;;;;2.87;2.40;;;31.80;99.90;;;;;;4979448;28;20217;-88
2023/08/16 06:31:42;;;;;;;3.40;2.40;;;31.40;99.90;;;;;;4933182;28;20561;-87
2023/08/16 06:34:38;;;;;;;3.10;2.60;;;31.80;99.90;;;;;;4951382;28;20225;-87
2023/08/16 06:38:02;;;;;;;3.85;2.83;;;32.90;99.90;;;;;;4954583;28;20414;-88
2023/08/16 06:40:49;;;;;;;7.07;3.13;;;33.30;99.90;;;;;;4962995;28;20211;-86
2023/08/16 06:43:47;;;;;;;3.97;2.97;;;34.30;99.90;;;;;;5005566;28;20245;-84
2023/08/16 06:46:23;;;;;;;3.67;2.78;;;34.80;99.90;;;;;;4963308;28;20203;-84
2023/08/16 06:48:51;;;;;;;5.38;3.40;;;34.90;99.90;;;;;;4987291;28;20224;-84
2023/08/16 06:51:23;;;;;;;5.18;2.60;;;33.70;99.90;;;;;;5050084;28;20208;-87
2023/08/16 06:53:52;;;;;;;8.25;3.35;;;31.80;99.90;;;;;;5034790;28;20217;-85
2023/08/16 06:56:27;;;;;;;6.90;2.92;;;30.80;99.90;;;;;;5035330;28;20231;-85
2023/08/16 06:58:53;;;;;;;4.13;2.95;;;30.30;99.90;;;;;;5048676;28;20531;-85
2023/08/16 07:01:39;;;;;;;2.65;2.45;;;30.10;99.90;;;;;;5067397;28;20157;-87
2023/08/16 07:04:05;;;;;;;4.57;2.58;;;30.70;99.90;;;;;;5055867;28;20267;-85
2023/08/16 07:06:33;;;;;;;4.45;2.80;;;31.20;99.90;;;;;;5049448;28;20674;-85
2023/08/16 07:09:04;;;;;;;3.00;2.33;;;32.30;99.90;;;;;;5049024;28;20223;-85
2023/08/16 07:11:32;;;;;;;3.72;2.97;;;33.30;99.90;;;;;;5046178;28;20599;-86
2023/08/16 07:14:01;;;;;;;3.53;2.70;;;34.00;99.90;;;;;;5037053;28;20205;-86
2023/08/16 07:16:31;;;;;;;2.35;2.13;;;33.60;99.90;;;;;;5063686;28;20558;-86
2023/08/16 07:18:57;;;;;;;5.78;2.60;;;33.60;99.90;;;;;;5032278;28;20209;-85
2023/08/16 07:21:23;;;;;;;4.10;1.75;;;33.90;99.90;;;;;;5051800;28;20213;-85
2023/08/16 07:23:49;;;;;;;4.22;2.25;;;32.70;99.90;;;;;;5034625;28;20657;-85
2023/08/16 07:26:15;;;;;;;3.97;2.45;;;32.20;99.90;;;;;;5047433;28;20225;-85
2023/08/16 07:28:43;;;;;;;8.95;2.55;;;30.90;99.90;;;;;;5049256;28;20673;-85
2023/08/16 07:31:11;;;;;;;3.30;3.00;;;29.90;99.90;;;;;;5048825;28;20228;-84
2023/08/16 07:33:44;;;;;;;3.78;2.72;;;29.00;99.90;;;;;;5048543;28;20223;-85
2023/08/16 07:36:11;;;;;;;3.95;2.78;;;28.40;99.90;;;;;;5048831;28;20220;-84
2023/08/16 07:38:37;;;;;;;4.90;3.38;;;27.90;99.90;;;;;;5048390;28;20675;-85
2023/08/16 07:41:02;;;;;;;3.47;2.38;;;28.60;99.90;;;;;;5049577;28;20179;-84
2023/08/16 07:43:29;;;;;;;4.35;3.20;;;26.50;99.90;;;;;;5053056;28;20292;-84
2023/08/16 07:45:57;;;;;;;4.25;2.80;;;25.00;99.90;;;;;;5052838;28;20213;-85
2023/08/16 07:48:23;;;;;;;4.10;2.72;;;24.00;99.90;;;;;;5070120;28;20291;-84
2023/08/16 07:50:50;;;;;;;2.30;2.10;;;23.70;99.90;;;;;;5052320;28;20614;-84
2023/08/16 07:53:16;;;;;;;3.13;2.63;;;23.70;99.90;;;;;;5052321;28;20209;-85
2023/08/16 07:55:42;;;;;;;2.55;2.15;;;24.50;99.90;;;;;;5052851;28;20488;-84
2023/08/16 07:58:07;;;;;;;5.20;2.97;;;25.30;99.90;;;;;;5052446;28;20216;-83
2023/08/16 08:00:33;;;;;;;4.32;3.47;;;25.60;99.90;;;;;;5035141;28;20225;-84
2023/08/16 08:02:59;;;;;;;5.80;2.83;;;26.30;99.90;;;;;;5052157;28;20225;-86
2023/08/16 08:05:25;;;;;;;6.18;3.13;;;27.70;99.90;;;;;;5051832;28;20205;-83
2023/08/16 08:07:55;;;;;;;2.85;2.60;;;28.10;99.90;;;;;;5035340;28;20265;-83
2023/08/16 08:10:20;;;;;;;9.05;3.05;;;27.70;99.90;;;;;;5035740;28;20184;-84
2023/08/16 08:12:46;;;;;;;4.85;2.50;;;27.40;99.90;;;;;;5051249;28;20373;-83
2023/08/16 08:15:13;;;;;;;2.85;2.55;;;27.90;99.90;;;;;;5052020;28;20208;-83
2023/08/16 08:17:39;;;;;;;4.32;2.88;;;27.20;99.90;;;;;;5051458;28;20356;-84
2023/08/16 08:20:08;;;;;;;3.65;2.65;;;26.40;99.90;;;;;;5051948;28;20562;-85
2023/08/16 08:22:34;;;;;;;3.60;2.22;;;26.50;99.90;;;;;;5052124;28;20216;-84
2023/08/16 08:25:01;;;;;;;1.90;1.80;;;27.40;99.90;;;;;;5051849;28;20219;-83
2023/08/16 08:27:26;;;;;;;2.20;2.00;;;27.60;99.90;;;;;;5035114;28;20237;-84
2023/08/16 08:29:52;;;;;;;4.03;1.95;;;27.10;99.90;;;;;;5051463;28;20400;-83
2023/08/16 08:32:18;;;;;;;2.13;1.85;;;26.10;99.90;;;;;;5035170;28;20271;-83
2023/08/16 08:34:44;;;;;;;1.80;1.70;;;25.70;99.90;;;;;;5051301;28;20280;-82
2023/08/16 08:37:12;;;;;;;3.40;1.88;;;25.60;99.90;;;;;;5035534;28;20200;-83
2023/08/16 08:39:38;;;;;;;1.95;1.85;;;26.40;99.90;;;;;;5035337;28;20239;-82
2023/08/16 08:42:08;;;;;;;4.97;2.28;;;28.10;99.90;;;;;;5051315;28;20761;-83
2023/08/16 08:44:37;;;;;;;2.95;1.88;;;29.70;99.90;;;;;;5051109;28;20292;-84
2023/08/16 08:47:08;;;;;;;3.90;1.85;;;30.20;99.90;;;;;;5035376;28;20332;-83
2023/08/16 08:49:37;;;;;;;3.10;1.83;;;29.80;99.90;;;;;;5051940;28;20161;-84
2023/08/16 08:52:04;;;;;;;2.30;1.70;;;30.10;99.90;;;;;;5050757;28;20252;-84
2023/08/16 08:54:33;;;;;;;3.42;1.77;;;30.50;99.90;;;;;;5050496;28;20274;-84
2023/08/16 08:56:59;;;;;;;2.97;2.03;;;29.10;99.90;;;;;;5042794;28;20708;-83
2023/08/16 08:59:33;;;;;;;4.95;1.60;;;28.30;99.90;;;;;;5068770;28;20232;-84
2023/08/16 09:02:00;;;;;;;1.80;1.70;;;27.00;99.90;;;;;;5050764;28;20190;-83
2023/08/16 09:04:29;;;;;;;4.05;1.73;;;26.10;99.90;;;;;;5069266;28;20622;-83
2023/08/16 09:06:56;;;;;;;1.35;1.25;;;27.20;99.90;;;;;;5068888;28;20213;-83
2023/08/16 09:09:24;;;;;;;3.75;1.70;;;27.60;99.90;;;;;;5068349;28;20673;-84
2023/08/16 09:11:50;;;;;;;1.65;1.55;;;27.60;99.90;;;;;;5051111;28;20257;-84
2023/08/16 09:14:16;;;;;;;3.42;1.58;;;27.00;99.90;;;;;;5050705;28;20500;-83
2023/08/16 09:16:42;;;;;;;4.43;1.77;;;26.70;99.90;;;;;;5051202;28;20196;-84
2023/08/16 09:19:15;;;;;;;3.42;1.42;;;26.50;99.90;;;;;;5050729;28;20248;-84
2023/08/16 09:21:44;;;;;;;2.33;1.10;;;28.00;99.90;;;;;;5050062;28;20216;-83
2023/08/16 09:24:10;;;;;;;1.48;1.10;;;29.30;99.90;;;;;;5068437;28;20263;-83
2023/08/16 09:26:37;;;;;;;3.30;1.63;;;29.10;99.90;;;;;;5067859;28;20814;-83
2023/08/16 09:29:04;;;;;;;2.80;1.20;;;28.60;99.90;;;;;;5050113;28;20677;-84
2023/08/16 09:31:37;;;;;;;1.98;1.40;;;28.40;99.90;;;;;;5051266;28;20188;-84
2023/08/16 09:34:03;;;;;;;1.45;1.27;;;27.50;99.90;;;;;;5067906;28;20217;-84
2023/08/16 09:36:30;;;;;;;2.35;1.33;;;28.80;99.90;;;;;;5050149;28;20216;-83
2023/08/16 09:39:01;;;;;;;3.75;1.42;;;29.90;99.90;;;;;;5067801;28;20492;-85
2023/08/16 09:41:27;;;;;;;0.90;0.90;;;30.90;99.90;;;;;;5050095;28;20205;-85
2023/08/16 09:44:07;;;;;;;1.05;1.05;;;31.90;99.90;;;;;;5049850;28;20216;-84
2023/08/16 09:46:34;;;;;;;1.30;1.08;;;31.90;99.90;;;;;;5050920;28;20211;-83
2023/08/16 09:49:03;;;;;;;2.78;1.30;;;30.20;99.90;;;;;;5033271;28;20215;-83
2023/08/16 09:51:31;;;;;;;1.98;0.95;;;29.50;99.90;;;;;;5050001;28;20286;-85
2023/08/16 09:53:57;;;;;;;3.22;1.58;;;28.60;99.90;;;;;;5067892;28;20213;-83
2023/08/16 09:56:26;;;;;;;1.40;1.30;;;27.60;99.90;;;;;;5040661;28;20221;-84
2023/08/16 09:58:52;;;;;;;1.27;1.17;;;26.80;99.90;;;;;;5049868;28;20260;-84
2023/08/16 10:01:18;;;;;;;1.02;1.02;;;26.20;99.90;;;;;;5050841;28;20670;-85
2023/08/16 10:03:53;;;;;;;2.15;1.23;;;27.10;99.90;;;;;;5049774;28;20225;-85
2023/08/16 10:06:23;;;;;;;1.02;0.95;;;27.30;99.90;;;;;;5049751;28;20299;-85
2023/08/16 10:08:52;;;;;;;1.48;0.95;;;26.40;99.90;;;;;;5050533;28;20212;-84
2023/08/16 10:11:24;;;;;;;3.40;1.40;;;26.20;99.90;;;;;;5050693;28;20236;-85
2023/08/16 10:13:58;;;;;;;1.02;0.77;;;25.90;99.90;;;;;;5034501;28;20169;-84
2023/08/16 10:16:34;;;;;;;5.20;1.17;;;26.10;99.90;;;;;;5051378;28;20184;-84
2023/08/16 10:19:13;;;;;;;1.45;0.93;;;25.70;99.90;;;;;;5068328;28;20224;-85
2023/08/16 10:21:47;;;;;;;2.55;1.27;;;25.90;99.90;;;;;;5051101;28;20208;-84
2023/08/16 10:24:20;;;;;;;0.90;0.90;;;26.00;99.90;;;;;;5041482;28;20224;-85
2023/08/16 10:26:50;;;;;;;1.20;1.20;;;25.10;99.90;;;;;;5024526;28;20325;-85
2023/08/16 10:29:22;;;;;;;2.25;1.00;;;25.20;99.90;;;;;;5050452;28;20220;-85
2023/08/16 10:31:52;;;;;;;1.52;0.95;;;25.90;99.90;;;;;;5067521;28;20166;-86
2023/08/16 10:34:59;;;;;;;2.35;0.88;;;25.80;99.90;;;;;;5050891;28;20154;-87
2023/08/16 10:38:19;;;;;;;;;;;;;;;;;;;;;
2023/08/16 10:45:06;;;;;;;1.67;0.70;;;27.20;99.90;;;;;;4960817;28;20230;-88
2023/08/16 10:52:22;;;;;;;1.55;0.98;;;29.70;99.90;;;;;;5023194;28;20851;-88
2023/08/16 10:55:14;;;;;;;0.55;0.55;;;28.40;99.90;;;;;;5004303;28;20179;-90
2023/08/16 10:57:58;;;;;;;1.35;0.77;;;27.00;99.90;;;;;;4991313;28;20187;-87
2023/08/16 11:01:26;;;;;;;;;;;;;;;;;;;;;
2023/08/16 11:04:06;;;;;;;1.02;0.90;;;27.70;99.90;;;;;;4962393;28;20310;-90
2023/08/16 11:06:32;;;;;;;0.75;0.75;;;28.00;99.90;;;;;;5046103;28;20228;-88
2023/08/16 11:09:04;;;;;;;1.17;0.88;;;27.00;99.90;;;;;;5048675;28;20209;-86
2023/08/16 11:11:54;;;;;;;1.02;0.65;;;27.00;99.90;;;;;;5062369;28;20294;-88
2023/08/16 11:14:57;;;;;;;0.75;0.60;;;27.90;99.90;;;;;;5052576;28;20709;-90
2023/08/16 11:17:46;;;;;;;0.77;0.77;;;28.30;99.90;;;;;;5059101;28;20220;-86
2023/08/16 11:20:18;;;;;;;1.02;0.75;;;28.20;99.90;;;;;;5052112;28;20730;-87
2023/08/16 11:22:56;;;;;;;1.10;0.77;;;28.30;99.90;;;;;;5036659;28;20228;-88
2023/08/16 11:25:36;;;;;;;1.73;0.70;;;28.40;99.90;;;;;;5068927;28;20215;-88
2023/08/16 11:28:21;;;;;;;1.15;0.60;;;27.70;99.90;;;;;;5055216;28;20293;-86
2023/08/16 11:30:55;;;;;;;0.50;0.50;;;27.60;99.90;;;;;;5057995;28;20614;-87
2023/08/16 11:33:43;;;;;;;0.93;0.82;;;27.10;99.90;;;;;;5043434;28;20678;-87
2023/08/16 11:36:42;;;;;;;1.50;0.68;;;26.90;99.90;;;;;;5036628;28;20217;-90
2023/08/16 11:39:43;;;;;;;0.52;0.52;;;27.00;99.90;;;;;;5052556;28;20263;-89
2023/08/16 11:42:56;;;;;;;3.80;1.75;;;27.00;99.90;;;;;;5040874;28;20235;-87
2023/08/16 11:45:50;;;;;;;1.17;0.88;;;27.10;99.90;;;;;;5029691;28;20666;-87
2023/08/16 11:48:49;;;;;;;0.50;0.50;;;26.00;99.90;;;;;;5058751;28;20265;-87
2023/08/16 11:51:35;;;;;;;;;;;;;;;;;;;;;
2023/08/16 11:54:08;;;;;;;1.60;0.75;;;24.80;99.90;;;;;;5070833;28;20270;-87
2023/08/16 11:57:00;;;;;;;1.58;0.88;;;25.20;99.90;;;;;;5056382;28;20209;-85
2023/08/16 11:59:31;;;;;;;1.42;0.80;;;25.10;99.90;;;;;;5047308;28;20208;-85
2023/08/16 12:02:09;;;;;;;2.25;0.90;;;24.80;99.90;;;;;;5056199;28;20181;-88
2023/08/16 12:05:26;;;;;;;1.70;1.23;;;24.70;99.90;;;;;;5053481;28;20314;-87
2023/08/16 12:08:24;;;;;;;0.82;0.82;;;24.90;99.90;;;;;;4998919;28;20711;-85
2023/08/16 12:11:28;;;;;;;0.77;0.77;;;24.00;99.90;;;;;;5027205;28;20210;-87
2023/08/16 12:13:54;;;;;;;1.08;0.85;;;24.10;99.90;;;;;;5039268;28;20690;-86
2023/08/16 12:16:20;;;;;;;1.85;0.98;;;24.60;99.90;;;;;;5031301;28;20321;-87
2023/08/16 12:19:08;;;;;;;1.92;0.95;;;24.40;99.90;;;;;;5053195;28;20217;-88
2023/08/16 12:21:34;;;;;;;1.38;0.70;;;23.80;99.90;;;;;;5030906;28;20240;-86
2023/08/16 12:24:05;;;;;;;2.58;0.90;;;23.70;99.90;;;;;;5033693;28;20317;-86
2023/08/16 12:26:43;;;;;;;0.90;0.80;;;24.10;99.90;;;;;;5024641;28;20258;-86
2023/08/16 12:29:23;;;;;;;0.88;0.88;;;23.80;99.90;;;;;;5050307;28;20775;-87
2023/08/16 12:32:01;;;;;;;;;;;;;;;;;;;;;
2023/08/16 12:41:41;;;;;;;;;;;;;;;;;;;;;
2023/08/16 12:44:45;;;;;;;1.63;1.13;;;24.20;99.90;;;;;;5021372;28;20309;-87
2023/08/16 12:47:11;;;;;;;1.45;1.10;;;24.10;99.90;;;;;;4984672;28;20214;-87
2023/08/16 12:49:46;;;;;;;0.80;0.80;;;24.10;99.90;;;;;;5050018;28;20209;-87
2023/08/16 12:52:33;;;;;;;0.80;0.80;;;24.30;99.90;;;;;;5055715;28;20594;-87
2023/08/16 12:54:59;;;;;;;5.22;1.35;;;24.40;99.90;;;;;;5071949;28;20749;-89
2023/08/16 12:57:40;;;;;;;2.20;1.00;;;24.20;99.90;;;;;;5055584;28;20260;-88
2023/08/16 13:00:14;;;;;;;1.75;1.00;;;24.30;99.90;;;;;;5072915;28;20606;-86
2023/08/16 13:02:50;;;;;;;2.53;1.00;;;23.90;99.90;;;;;;5054373;28;20481;-86
2023/08/16 13:05:22;;;;;;;1.33;1.13;;;23.70;99.90;;;;;;5072174;28;20251;-87
2023/08/16 13:07:57;;;;;;;4.82;1.13;;;23.80;99.90;;;;;;5069845;28;20187;-87
2023/08/16 13:10:31;;;;;;;1.27;1.17;;;24.00;99.90;;;;;;5071551;28;20185;-88
2023/08/16 13:13:22;;;;;;;0.93;0.80;;;24.10;99.90;;;;;;5055577;28;20217;-89
2023/08/16 13:16:28;;;;;;;2.10;0.95;;;24.30;99.90;;;;;;5071913;28;20192;-90
2023/08/16 13:19:21;;;;;;;3.05;1.20;;;24.30;99.90;;;;;;5056861;28;20217;-86
2023/08/16 13:21:50;;;;;;;0.80;0.80;;;24.40;99.90;;;;;;5071599;28;20176;-87
2023/08/16 13:29:09;;;;;;;0.75;0.70;;;24.50;99.90;;;;;;5024885;28;20378;-87
2023/08/16 13:42:49;;;;;;;1.77;0.80;;;24.10;99.90;;;;;;5049305;28;20252;-86
2023/08/16 13:49:38;;;;;;;0.60;0.60;;;24.50;99.90;;;;;;5015984;28;20260;-86
2023/08/16 13:56:04;;;;;;;1.17;0.90;;;24.60;99.90;;;;;;5026887;28;20198;-88
2023/08/16 13:59:20;;;;;;;;;;;;;;;;;;;;;
2023/08/16 14:09:21;;;;;;;1.60;0.60;;;23.80;99.90;;;;;;4974036;28;20191;-86
2023/08/16 14:11:58;;;;;;;1.90;0.80;;;23.90;99.90;;;;;;4989341;28;20206;-88
2023/08/16 14:15:15;;;;;;;1.58;0.75;;;24.00;99.90;;;;;;4992821;28;20196;-85
2023/08/16 14:29:11;;;;;;;1.00;0.90;;;24.20;99.90;;;;;;5014876;28;20312;-85
2023/08/16 14:31:56;;;;;;;3.53;0.95;;;24.20;99.90;;;;;;5033621;28;20286;-87
2023/08/16 14:42:38;;;;;;;3.00;1.10;;;24.00;99.90;;;;;;4947669;28;20785;-84
2023/08/16 14:48:58;;;;;;;0.75;0.75;;;23.50;99.90;;;;;;4966342;28;20220;-87
2023/08/16 14:52:03;;;;;;;1.20;0.88;;;23.40;99.90;;;;;;5046929;28;20291;-85
2023/08/16 14:54:46;;;;;;;1.10;1.00;;;23.60;99.90;;;;;;5049179;28;20271;-85
2023/08/16 15:01:01;;;;;;;1.67;1.13;;;23.20;99.90;;;;;;5010263;28;20226;-86
2023/08/16 15:03:35;;;;;;;2.22;1.40;;;22.90;99.90;;;;;;5008515;28;20257;-86
2023/08/16 15:09:29;;;;;;;1.60;1.17;;;23.30;99.90;;;;;;5062124;28;20215;-89
2023/08/16 15:12:18;;;;;;;3.17;1.13;;;23.60;99.90;;;;;;5038754;28;20217;-88
2023/08/16 15:21:54;;;;;;;1.67;0.80;;;22.30;99.90;;;;;;4996340;28;20227;-84
2023/08/16 15:24:46;;;;;;;1.52;0.95;;;22.90;99.90;;;;;;5032167;28;20308;-87
2023/08/16 15:27:12;;;;;;;1.00;0.90;;;22.90;99.90;;;;;;5040033;28;20595;-83
2023/08/16 15:29:38;;;;;;;0.80;0.80;;;22.80;99.90;;;;;;5048659;28;20233;-85
2023/08/16 15:32:07;;;;;;;2.58;1.02;;;22.90;99.90;;;;;;5048888;28;20225;-84
2023/08/16 15:34:32;;;;;;;1.25;1.00;;;23.00;99.90;;;;;;5066433;28;20169;-84
2023/08/16 15:36:58;;;;;;;6.35;1.80;;;22.50;99.90;;;;;;5048687;28;20219;-84
2023/08/16 15:39:24;;;;;;;1.20;1.10;;;22.30;99.90;;;;;;5048769;28;20255;-84
2023/08/16 15:41:50;;;;;;;1.70;0.80;;;22.20;99.90;;;;;;5065505;28;20910;-84
2023/08/16 15:44:17;;;;;;;0.90;0.90;;;22.20;99.90;;;;;;5048799;28;20233;-84
2023/08/16 15:46:43;;;;;;;2.08;1.10;;;22.50;99.90;;;;;;5066948;28;20228;-83
2023/08/16 15:49:09;;;;;;;1.60;1.08;;;22.50;99.90;;;;;;5050497;28;20201;-86
2023/08/16 15:51:47;;;;;;;2.13;1.40;;;22.60;99.90;;;;;;5032594;28;20213;-91
2023/08/16 15:54:20;;;;;;;1.75;1.08;;;22.60;99.90;;;;;;5014192;28;20223;-88
2023/08/16 15:56:46;;;;;;;2.08;0.88;;;22.20;99.90;;;;;;5049370;28;20217;-87
2023/08/16 15:59:12;;;;;;;2.63;1.08;;;22.00;99.90;;;;;;5048616;28;20212;-87
2023/08/16 16:01:41;;;;;;;3.27;1.20;;;22.20;99.90;;;;;;5033448;28;20173;-86
2023/08/16 16:04:07;;;;;;;1.33;1.10;;;22.50;99.90;;;;;;5069826;28;20298;-86
2023/08/16 16:06:35;;;;;;;1.83;1.10;;;22.50;99.90;;;;;;5073280;28;20668;-85
2023/08/16 16:09:04;;;;;;;2.53;1.03;;;22.40;99.90;;;;;;5036601;28;20220;-86
2023/08/16 16:11:33;;;;;;;0.98;0.98;;;22.30;99.90;;;;;;5052912;28;20244;-85
2023/08/16 16:14:09;;;;;;;1.60;1.20;;;21.80;99.90;;;;;;5051608;28;20623;-86
2023/08/16 16:16:43;;;;;;;1.95;1.10;;;21.40;99.90;;;;;;5052704;28;20161;-86
2023/08/16 16:19:11;;;;;;;1.27;1.00;;;21.40;99.90;;;;;;5052042;28;20560;-88
2023/08/16 16:21:40;;;;;;;2.57;0.93;;;21.30;99.90;;;;;;5053068;28;20665;-86
2023/08/16 16:24:11;;;;;;;0.80;0.80;;;21.50;99.90;;;;;;5072915;28;20314;-86
2023/08/16 16:26:46;;;;;;;0.73;0.73;;;21.60;99.90;;;;;;5056766;28;20655;-87
2023/08/16 16:29:12;;;;;;;1.93;1.20;;;21.40;99.90;;;;;;5033452;28;20386;-85
2023/08/16 16:31:49;;;;;;;1.33;1.23;;;21.40;99.90;;;;;;5032675;28;20170;-88
2023/08/16 16:34:14;;;;;;;0.77;0.77;;;21.50;99.90;;;;;;5051951;28;20342;-84
2023/08/16 16:36:40;;;;;;;4.67;1.77;;;21.50;99.90;;;;;;5069259;28;20304;-86
2023/08/16 16:39:15;;;;;;;2.10;0.97;;;21.70;99.90;;;;;;5044111;28;20221;-86
2023/08/16 16:42:11;;;;;;;1.23;1.13;;;21.90;99.90;;;;;;5035465;28;20678;-87
2023/08/16 16:44:39;;;;;;;1.43;1.33;;;21.50;99.90;;;;;;5051631;28;20733;-86
2023/08/16 16:47:05;;;;;;;3.23;1.10;;;21.20;99.90;;;;;;5051347;28;20741;-87
2023/08/16 16:49:33;;;;;;;2.50;1.40;;;21.00;99.90;;;;;;5036541;28;20173;-86
2023/08/16 16:51:59;;;;;;;3.43;1.10;;;21.10;99.90;;;;;;5051578;28;20219;-85
2023/08/16 16:54:28;;;;;;;1.55;1.23;;;20.90;99.90;;;;;;5051946;28;20205;-87
2023/08/16 16:56:59;;;;;;;4.30;1.20;;;20.80;99.90;;;;;;5043214;28;20231;-85
2023/08/16 16:59:25;;;;;;;2.23;1.07;;;20.80;99.90;;;;;;5051334;28;20284;-86
2023/08/16 17:01:54;;;;;;;2.70;1.10;;;20.90;99.90;;;;;;5035977;28;20174;-84
2023/08/16 17:04:27;;;;;;;2.77;1.60;;;20.70;99.90;;;;;;5035766;28;20205;-90
2023/08/16 17:06:57;;;;;;;3.57;1.00;;;20.90;99.90;;;;;;5050557;28;20213;-87
2023/08/16 17:09:29;;;;;;;1.00;0.70;;;20.70;99.90;;;;;;5053248;28;20220;-86
2023/08/16 17:12:00;;;;;;;2.87;1.40;;;20.60;99.90;;;;;;5036113;28;20213;-84
2023/08/16 17:14:41;;;;;;;4.13;1.40;;;20.20;99.90;;;;;;5047985;28;20299;-87
2023/08/16 17:17:13;;;;;;;1.10;0.90;;;20.20;99.90;;;;;;5078813;28;20373;-89
2023/08/16 17:19:51;;;;;;;;;;;;;;;;;;;;;
2023/08/16 17:22:51;;;;;;;1.00;0.97;;;20.10;99.90;;;;;;4957282;28;20219;-86
2023/08/16 17:25:41;;;;;;;1.37;0.93;;;19.80;99.90;;;;;;4969104;28;20212;-88
2023/08/16 17:28:21;;;;;;;3.80;1.20;;;19.70;99.90;;;;;;4946377;29;20856;-87
2023/08/16 17:30:57;;;;;;;2.60;1.27;;;19.90;99.90;;;;;;4925478;28;20253;-85
2023/08/16 17:33:35;;;;;;;1.13;1.00;;;20.00;99.90;;;;;;5031938;28;20263;-87
2023/08/16 17:36:12;;;;;;;1.40;1.27;;;19.90;99.90;;;;;;5050111;28;20161;-82
2023/08/16 17:38:45;;;;;;;2.30;1.00;;;19.80;99.90;;;;;;5068377;28;20252;-85
2023/08/16 17:41:23;;;;;;;0.83;0.83;;;19.70;99.90;;;;;;5047069;28;20169;-87
2023/08/16 17:44:00;;;;;;;1.40;1.30;;;19.60;99.90;;;;;;5049570;28;20255;-86
2023/08/16 17:46:36;;;;;;;3.13;1.03;;;19.60;99.90;;;;;;5050345;28;20161;-86
2023/08/16 17:53:22;;;;;;;2.37;1.23;;;19.60;99.90;;;;;;4960701;28;20160;-86
2023/08/16 17:56:08;;;;;;;3.97;1.03;;;19.60;99.90;;;;;;4949385;28;20272;-85
2023/08/16 17:58:37;;;;;;;3.63;1.20;;;19.70;99.90;;;;;;4934555;28;20276;-84
2023/08/16 18:01:13;;;;;;;1.50;1.10;;;19.70;99.90;;;;;;5035999;28;20200;-87
2023/08/16 18:03:57;;;;;;;7.80;1.70;;;19.70;99.90;;;;;;5047730;28;20225;-86
2023/08/16 18:06:23;;;;;;;4.60;1.20;;;19.70;99.90;;;;;;5032394;28;20300;-84
2023/08/16 18:12:55;;;;;;;2.07;1.50;;;19.40;99.90;;;;;;5066790;28;20888;-85
2023/08/16 18:15:24;;;;;;;1.70;1.10;;;19.30;99.90;;;;;;5033058;28;20544;-87
2023/08/16 18:17:56;;;;;;;1.90;1.40;;;19.20;99.90;;;;;;5048196;28;20217;-86
2023/08/16 18:21:21;;;;;;;8.07;1.63;;;19.30;99.90;;;;;;5047426;28;20303;-87